sensor_id;sensor_type;location;lat;lon;timestamp;pressure;altitude;pressure_sealevel;temperature;humidity
73870;BME280;64924;42.140;24.762;2022-12-18T00:01:04;100216.66;;;12.03;71.00
73870;BME280;64924;42.140;24.762;2022-12-18T00:03:33;100229.34;;;12.11;71.06
73870;BME280;64924;42.140;24.762;2022-12-18T00:05:59;100211.41;;;12.01;70.73
73870;BME280;64924;42.140;24.762;2022-12-18T00:08:24;100214.31;;;12.00;71.16
73870;BME280;64924;42.140;24.762;2022-12-18T00:10:50;100235.53;;;12.04;70.99
73870;BME280;64924;42.140;24.762;2022-12-18T00:13:16;100243.72;;;12.04;70.81
73870;BME280;64924;42.140;24.762;2022-12-18T00:15:41;100254.81;;;12.03;70.45
73870;BME280;64924;42.140;24.762;2022-12-18T00:18:07;100262.78;;;12.04;70.71
73870;BME280;64924;42.140;24.762;2022-12-18T00:20:39;100272.91;;;12.11;70.52
73870;BME280;64924;42.140;24.762;2022-12-18T00:23:06;100270.66;;;11.99;70.49
73870;BME280;64924;42.140;24.762;2022-12-18T00:25:34;100271.06;;;11.96;70.54
73870;BME280;64924;42.140;24.762;2022-12-18T00:28:00;100275.38;;;12.05;70.43
73870;BME280;64924;42.140;24.762;2022-12-18T00:30:26;100276.97;;;12.00;70.51
73870;BME280;64924;42.140;24.762;2022-12-18T00:32:51;100286.25;;;12.05;70.05
73870;BME280;64924;42.140;24.762;2022-12-18T00:35:17;100287.94;;;12.07;69.98
73870;BME280;64924;42.140;24.762;2022-12-18T00:37:42;100290.78;;;11.98;69.88
73870;BME280;64924;42.140;24.762;2022-12-18T00:40:08;100242.78;;;11.53;70.64
73870;BME280;64924;42.140;24.762;2022-12-18T00:42:35;100289.16;;;11.60;70.92
73870;BME280;64924;42.140;24.762;2022-12-18T00:45:19;100307.38;;;11.45;71.16
73870;BME280;64924;42.140;24.762;2022-12-18T00:47:45;100301.44;;;11.41;71.27
73870;BME280;64924;42.140;24.762;2022-12-18T00:50:10;100307.06;;;11.39;71.53
73870;BME280;64924;42.140;24.762;2022-12-18T00:52:36;100281.75;;;11.01;72.02
73870;BME280;64924;42.140;24.762;2022-12-18T00:55:01;100319.94;;;11.08;72.30
73870;BME280;64924;42.140;24.762;2022-12-18T00:57:27;100323.59;;;11.15;72.26
73870;BME280;64924;42.140;24.762;2022-12-18T00:59:52;100321.09;;;11.14;72.40
73870;BME280;64924;42.140;24.762;2022-12-18T01:02:18;100299.53;;;11.12;71.74
73870;BME280;64924;42.140;24.762;2022-12-18T01:04:43;100308.13;;;11.16;71.78
73870;BME280;64924;42.140;24.762;2022-12-18T01:07:09;100310.47;;;11.19;71.95
73870;BME280;64924;42.140;24.762;2022-12-18T01:09:34;100317.13;;;11.16;72.02
73870;BME280;64924;42.140;24.762;2022-12-18T01:12:00;100314.91;;;11.20;71.54
73870;BME280;64924;42.140;24.762;2022-12-18T01:14:25;100265.50;;;10.93;71.76
73870;BME280;64924;42.140;24.762;2022-12-18T01:16:51;100301.81;;;11.00;72.09
73870;BME280;64924;42.140;24.762;2022-12-18T01:19:16;100301.94;;;11.07;72.30
73870;BME280;64924;42.140;24.762;2022-12-18T01:21:42;100302.81;;;11.22;71.96
73870;BME280;64924;42.140;24.762;2022-12-18T01:24:07;100306.13;;;11.32;71.39
73870;BME280;64924;42.140;24.762;2022-12-18T01:26:33;100302.66;;;11.38;71.13
73870;BME280;64924;42.140;24.762;2022-12-18T01:28:58;100259.84;;;11.18;70.83
73870;BME280;64924;42.140;24.762;2022-12-18T01:31:27;100309.06;;;11.60;70.38
73870;BME280;64924;42.140;24.762;2022-12-18T01:33:53;100310.25;;;11.58;70.41
73870;BME280;64924;42.140;24.762;2022-12-18T01:36:30;100305.41;;;11.68;69.98
73870;BME280;64924;42.140;24.762;2022-12-18T01:38:58;100308.69;;;11.63;70.41
73870;BME280;64924;42.140;24.762;2022-12-18T01:41:29;100316.28;;;11.68;70.27
73870;BME280;64924;42.140;24.762;2022-12-18T01:47:23;100287.75;;;11.49;70.01
73870;BME280;64924;42.140;24.762;2022-12-18T01:49:50;100301.25;;;11.57;70.42
73870;BME280;64924;42.140;24.762;2022-12-18T01:52:17;100300.69;;;11.62;69.85
73870;BME280;64924;42.140;24.762;2022-12-18T01:54:43;100292.34;;;11.63;69.91
73870;BME280;64924;42.140;24.762;2022-12-18T01:57:09;100302.69;;;11.68;69.79
73870;BME280;64924;42.140;24.762;2022-12-18T01:59:35;100306.53;;;11.73;69.89
73870;BME280;64924;42.140;24.762;2022-12-18T02:02:02;100310.75;;;11.76;69.60
73870;BME280;64924;42.140;24.762;2022-12-18T02:04:27;100316.56;;;11.73;69.92
73870;BME280;64924;42.140;24.762;2022-12-18T02:07:19;100316.16;;;11.84;69.58
73870;BME280;64924;42.140;24.762;2022-12-18T02:09:49;100324.22;;;11.78;70.08
73870;BME280;64924;42.140;24.762;2022-12-18T02:12:22;100328.63;;;11.79;69.97
73870;BME280;64924;42.140;24.762;2022-12-18T02:15:24;100315.69;;;11.81;69.91
73870;BME280;64924;42.140;24.762;2022-12-18T02:20:21;100340.72;;;11.91;69.83
73870;BME280;64924;42.140;24.762;2022-12-18T02:28:41;100338.66;;;12.08;69.35
73870;BME280;64924;42.140;24.762;2022-12-18T02:31:11;100331.53;;;12.07;69.25
73870;BME280;64924;42.140;24.762;2022-12-18T02:33:40;100340.16;;;12.10;69.35
73870;BME280;64924;42.140;24.762;2022-12-18T02:36:07;100338.09;;;12.12;69.42
73870;BME280;64924;42.140;24.762;2022-12-18T02:38:34;100330.78;;;12.13;69.46
73870;BME280;64924;42.140;24.762;2022-12-18T02:41:00;100313.59;;;11.97;69.36
73870;BME280;64924;42.140;24.762;2022-12-18T02:43:26;100321.28;;;12.09;69.42
73870;BME280;64924;42.140;24.762;2022-12-18T02:45:57;100317.44;;;12.03;69.10
73870;BME280;64924;42.140;24.762;2022-12-18T02:48:28;100329.56;;;12.15;69.18
73870;BME280;64924;42.140;24.762;2022-12-18T02:51:06;100320.34;;;12.16;68.94
73870;BME280;64924;42.140;24.762;2022-12-18T02:53:40;100322.50;;;12.21;68.59
73870;BME280;64924;42.140;24.762;2022-12-18T02:56:13;100328.34;;;12.18;68.71
73870;BME280;64924;42.140;24.762;2022-12-18T02:59:00;100341.09;;;12.17;68.71
73870;BME280;64924;42.140;24.762;2022-12-18T03:01:43;100338.25;;;12.25;68.37
73870;BME280;64924;42.140;24.762;2022-12-18T03:06:55;100331.53;;;12.07;68.94
73870;BME280;64924;42.140;24.762;2022-12-18T03:09:32;100333.13;;;12.01;68.92
73870;BME280;64924;42.140;24.762;2022-12-18T03:12:20;100328.63;;;12.08;68.80
73870;BME280;64924;42.140;24.762;2022-12-18T03:15:08;100344.13;;;12.08;68.95
73870;BME280;64924;42.140;24.762;2022-12-18T03:17:36;100344.00;;;12.01;68.99
73870;BME280;64924;42.140;24.762;2022-12-18T03:20:12;100349.28;;;12.02;68.91
73870;BME280;64924;42.140;24.762;2022-12-18T03:22:40;100346.94;;;11.99;69.02
73870;BME280;64924;42.140;24.762;2022-12-18T03:25:09;100351.06;;;11.95;69.02
73870;BME280;64924;42.140;24.762;2022-12-18T03:27:39;100337.06;;;11.98;68.89
73870;BME280;64924;42.140;24.762;2022-12-18T03:30:09;100353.69;;;12.03;69.05
73870;BME280;64924;42.140;24.762;2022-12-18T03:33:16;100355.19;;;12.06;68.71
73870;BME280;64924;42.140;24.762;2022-12-18T03:35:45;100355.19;;;11.91;68.90
73870;BME280;64924;42.140;24.762;2022-12-18T03:38:11;100361.47;;;11.92;69.39
73870;BME280;64924;42.140;24.762;2022-12-18T03:44:03;100376.13;;;12.05;68.85
73870;BME280;64924;42.140;24.762;2022-12-18T03:49:12;100379.13;;;11.96;68.64
73870;BME280;64924;42.140;24.762;2022-12-18T03:52:18;100388.34;;;12.10;68.12
73870;BME280;64924;42.140;24.762;2022-12-18T03:54:42;100397.63;;;12.00;68.45
73870;BME280;64924;42.140;24.762;2022-12-18T03:57:14;100395.84;;;12.08;68.04
73870;BME280;64924;42.140;24.762;2022-12-18T03:59:43;100391.16;;;12.01;68.11
73870;BME280;64924;42.140;24.762;2022-12-18T04:02:10;100399.81;;;12.05;68.06
73870;BME280;64924;42.140;24.762;2022-12-18T04:04:37;100403.00;;;12.09;68.04
73870;BME280;64924;42.140;24.762;2022-12-18T04:07:04;100400.91;;;11.96;68.00
73870;BME280;64924;42.140;24.762;2022-12-18T04:09:32;100409.38;;;12.01;68.07
73870;BME280;64924;42.140;24.762;2022-12-18T04:11:58;100405.88;;;11.92;68.07
73870;BME280;64924;42.140;24.762;2022-12-18T04:14:23;100372.53;;;11.76;67.95
73870;BME280;64924;42.140;24.762;2022-12-18T04:16:49;100413.41;;;11.90;67.86
73870;BME280;64924;42.140;24.762;2022-12-18T04:19:14;100405.88;;;11.92;67.67
73870;BME280;64924;42.140;24.762;2022-12-18T04:21:40;100414.66;;;11.88;68.04
73870;BME280;64924;42.140;24.762;2022-12-18T04:24:05;100417.06;;;11.83;67.85
73870;BME280;64924;42.140;24.762;2022-12-18T04:26:31;100418.78;;;11.84;68.09
73870;BME280;64924;42.140;24.762;2022-12-18T04:28:56;100413.53;;;11.74;67.86
73870;BME280;64924;42.140;24.762;2022-12-18T04:31:22;100417.81;;;11.77;67.80
73870;BME280;64924;42.140;24.762;2022-12-18T04:33:48;100345.09;;;11.10;67.93
73870;BME280;64924;42.140;24.762;2022-12-18T04:36:13;100416.03;;;11.61;67.72
73870;BME280;64924;42.140;24.762;2022-12-18T04:38:39;100429.75;;;11.67;67.34
73870;BME280;64924;42.140;24.762;2022-12-18T04:41:04;100413.69;;;11.58;67.30
73870;BME280;64924;42.140;24.762;2022-12-18T04:43:30;100422.56;;;11.52;67.19
73870;BME280;64924;42.140;24.762;2022-12-18T04:46:21;100427.97;;;11.60;66.60
73870;BME280;64924;42.140;24.762;2022-12-18T04:48:47;100442.03;;;11.49;67.03
73870;BME280;64924;42.140;24.762;2022-12-18T04:51:12;100450.25;;;11.41;67.01
73870;BME280;64924;42.140;24.762;2022-12-18T04:53:38;100340.97;;;10.68;66.69
73870;BME280;64924;42.140;24.762;2022-12-18T04:58:29;100426.91;;;11.00;66.81
73870;BME280;64924;42.140;24.762;2022-12-18T05:00:54;100458.56;;;11.16;66.47
73870;BME280;64924;42.140;24.762;2022-12-18T05:03:20;100474.88;;;11.16;66.58
73870;BME280;64924;42.140;24.762;2022-12-18T05:05:49;100478.75;;;11.22;66.11
73870;BME280;64924;42.140;24.762;2022-12-18T05:08:15;100474.69;;;11.18;65.97
73870;BME280;64924;42.140;24.762;2022-12-18T05:10:40;100479.78;;;11.21;65.98
73870;BME280;64924;42.140;24.762;2022-12-18T05:13:06;100470.84;;;11.12;65.77
73870;BME280;64924;42.140;24.762;2022-12-18T05:15:32;100487.63;;;11.16;65.49
73870;BME280;64924;42.140;24.762;2022-12-18T05:17:58;100507.91;;;11.13;65.67
73870;BME280;64924;42.140;24.762;2022-12-18T05:20:25;100493.25;;;11.14;65.38
73870;BME280;64924;42.140;24.762;2022-12-18T05:22:51;100418.09;;;10.67;65.47
73870;BME280;64924;42.140;24.762;2022-12-18T05:25:17;100493.13;;;11.08;65.62
73870;BME280;64924;42.140;24.762;2022-12-18T05:27:43;100507.41;;;11.10;65.68
73870;BME280;64924;42.140;24.762;2022-12-18T05:30:09;100508.75;;;11.14;65.70
73870;BME280;64924;42.140;24.762;2022-12-18T05:32:35;100486.22;;;10.97;65.62
73870;BME280;64924;42.140;24.762;2022-12-18T05:35:00;100526.88;;;11.21;65.68
73870;BME280;64924;42.140;24.762;2022-12-18T05:37:26;100527.56;;;11.15;65.81
73870;BME280;64924;42.140;24.762;2022-12-18T05:39:51;100532.56;;;11.12;65.46
73870;BME280;64924;42.140;24.762;2022-12-18T05:42:17;100518.47;;;11.08;65.62
73870;BME280;64924;42.140;24.762;2022-12-18T05:44:43;100532.47;;;11.20;65.79
73870;BME280;64924;42.140;24.762;2022-12-18T05:47:09;100541.50;;;11.20;65.36
73870;BME280;64924;42.140;24.762;2022-12-18T05:49:34;100550.00;;;11.17;65.40
73870;BME280;64924;42.140;24.762;2022-12-18T05:52:00;100538.84;;;11.12;65.10
73870;BME280;64924;42.140;24.762;2022-12-18T05:54:27;100559.97;;;11.33;64.96
73870;BME280;64924;42.140;24.762;2022-12-18T05:56:53;100549.47;;;11.22;64.72
73870;BME280;64924;42.140;24.762;2022-12-18T05:59:19;100556.97;;;11.20;64.43
73870;BME280;64924;42.140;24.762;2022-12-18T06:01:45;100524.78;;;11.00;64.38
73870;BME280;64924;42.140;24.762;2022-12-18T06:04:10;100580.59;;;11.19;64.27
73870;BME280;64924;42.140;24.762;2022-12-18T06:06:36;100533.66;;;10.94;63.89
73870;BME280;64924;42.140;24.762;2022-12-18T06:09:02;100575.50;;;11.16;64.10
73870;BME280;64924;42.140;24.762;2022-12-18T06:11:34;100577.03;;;11.19;64.23
73870;BME280;64924;42.140;24.762;2022-12-18T06:14:00;100564.47;;;11.18;63.96
73870;BME280;64924;42.140;24.762;2022-12-18T06:16:27;100576.47;;;11.31;63.60
73870;BME280;64924;42.140;24.762;2022-12-18T06:18:53;100568.03;;;11.18;62.97
73870;BME280;64924;42.140;24.762;2022-12-18T06:21:18;100581.59;;;11.26;63.21
73870;BME280;64924;42.140;24.762;2022-12-18T06:23:44;100586.00;;;11.27;62.71
73870;BME280;64924;42.140;24.762;2022-12-18T06:26:11;100590.59;;;11.27;63.16
73870;BME280;64924;42.140;24.762;2022-12-18T06:28:37;100597.06;;;11.26;62.47
73870;BME280;64924;42.140;24.762;2022-12-18T06:31:03;100590.94;;;11.24;62.96
73870;BME280;64924;42.140;24.762;2022-12-18T06:33:29;100604.47;;;11.40;62.68
73870;BME280;64924;42.140;24.762;2022-12-18T06:36:00;100607.84;;;11.50;62.54
73870;BME280;64924;42.140;24.762;2022-12-18T06:38:26;100618.06;;;11.48;62.00
73870;BME280;64924;42.140;24.762;2022-12-18T06:40:51;100613.28;;;11.50;62.08
73870;BME280;64924;42.140;24.762;2022-12-18T06:43:17;100625.03;;;11.51;61.87
73870;BME280;64924;42.140;24.762;2022-12-18T06:45:42;100615.38;;;11.40;61.89
73870;BME280;64924;42.140;24.762;2022-12-18T06:48:08;100629.72;;;11.57;61.47
73870;BME280;64924;42.140;24.762;2022-12-18T06:50:34;100590.38;;;11.36;61.50
73870;BME280;64924;42.140;24.762;2022-12-18T06:52:59;100623.59;;;11.55;61.36
73870;BME280;64924;42.140;24.762;2022-12-18T06:55:25;100639.22;;;11.61;61.31
73870;BME280;64924;42.140;24.762;2022-12-18T06:57:50;100639.41;;;11.59;61.04
73870;BME280;64924;42.140;24.762;2022-12-18T07:00:16;100608.41;;;11.37;60.97
73870;BME280;64924;42.140;24.762;2022-12-18T07:02:42;100643.09;;;11.66;61.10
73870;BME280;64924;42.140;24.762;2022-12-18T07:05:07;100649.41;;;11.67;60.75
73870;BME280;64924;42.140;24.762;2022-12-18T07:07:34;100655.03;;;11.65;60.92
73870;BME280;64924;42.140;24.762;2022-12-18T07:10:00;100627.34;;;11.54;60.78
73870;BME280;64924;42.140;24.762;2022-12-18T07:12:27;100652.63;;;11.70;61.12
73870;BME280;64924;42.140;24.762;2022-12-18T07:14:52;100627.97;;;11.64;60.56
73870;BME280;64924;42.140;24.762;2022-12-18T07:17:18;100664.00;;;11.82;60.42
73870;BME280;64924;42.140;24.762;2022-12-18T07:19:43;100669.44;;;11.82;60.05
73870;BME280;64924;42.140;24.762;2022-12-18T07:22:08;100653.31;;;11.64;59.85
73870;BME280;64924;42.140;24.762;2022-12-18T07:24:34;100625.53;;;11.46;59.79
73870;BME280;64924;42.140;24.762;2022-12-18T07:27:00;100662.69;;;11.62;60.48
73870;BME280;64924;42.140;24.762;2022-12-18T07:29:25;100662.53;;;11.63;60.52
73870;BME280;64924;42.140;24.762;2022-12-18T07:31:51;100681.00;;;11.76;59.77
73870;BME280;64924;42.140;24.762;2022-12-18T07:34:16;100673.19;;;11.73;59.82
73870;BME280;64924;42.140;24.762;2022-12-18T07:36:42;100681.00;;;11.76;59.99
73870;BME280;64924;42.140;24.762;2022-12-18T07:39:08;100680.34;;;11.74;59.84
73870;BME280;64924;42.140;24.762;2022-12-18T07:41:33;100677.63;;;11.74;59.64
73870;BME280;64924;42.140;24.762;2022-12-18T07:43:59;100679.16;;;11.77;59.48
73870;BME280;64924;42.140;24.762;2022-12-18T07:46:24;100687.13;;;11.86;59.26
73870;BME280;64924;42.140;24.762;2022-12-18T07:48:50;100640.06;;;11.61;59.45
73870;BME280;64924;42.140;24.762;2022-12-18T07:51:15;100688.06;;;11.93;58.82
73870;BME280;64924;42.140;24.762;2022-12-18T07:53:41;100689.09;;;11.92;58.52
73870;BME280;64924;42.140;24.762;2022-12-18T07:56:09;100689.00;;;11.86;58.40
73870;BME280;64924;42.140;24.762;2022-12-18T07:58:36;100703.75;;;11.91;58.25
73870;BME280;64924;42.140;24.762;2022-12-18T08:01:06;100710.22;;;11.90;57.63
73870;BME280;64924;42.140;24.762;2022-12-18T08:03:33;100655.16;;;11.41;58.38
73870;BME280;64924;42.140;24.762;2022-12-18T08:06:03;100716.50;;;11.91;58.36
73870;BME280;64924;42.140;24.762;2022-12-18T08:08:30;100710.78;;;11.86;58.14
73870;BME280;64924;42.140;24.762;2022-12-18T08:10:55;100712.34;;;11.80;57.99
73870;BME280;64924;42.140;24.762;2022-12-18T08:13:21;100724.06;;;11.81;58.26
73870;BME280;64924;42.140;24.762;2022-12-18T08:15:59;100719.81;;;11.78;57.53
73870;BME280;64924;42.140;24.762;2022-12-18T08:18:24;100731.03;;;11.83;58.24
73870;BME280;64924;42.140;24.762;2022-12-18T08:20:50;100745.63;;;11.90;58.00
73870;BME280;64924;42.140;24.762;2022-12-18T08:23:16;100741.00;;;11.91;57.78
73870;BME280;64924;42.140;24.762;2022-12-18T08:25:41;100738.59;;;11.96;57.96
73870;BME280;64924;42.140;24.762;2022-12-18T08:28:07;100740.31;;;11.97;57.26
73870;BME280;64924;42.140;24.762;2022-12-18T08:30:32;100699.75;;;11.79;56.59
73870;BME280;64924;42.140;24.762;2022-12-18T08:32:58;100706.53;;;11.83;56.35
73870;BME280;64924;42.140;24.762;2022-12-18T08:35:23;100716.56;;;11.83;56.78
73870;BME280;64924;42.140;24.762;2022-12-18T08:37:49;100740.44;;;12.03;56.98
73870;BME280;64924;42.140;24.762;2022-12-18T08:40:15;100736.03;;;12.02;56.27
73870;BME280;64924;42.140;24.762;2022-12-18T08:42:41;100738.75;;;12.02;56.35
73870;BME280;64924;42.140;24.762;2022-12-18T08:45:25;100738.94;;;12.01;56.35
73870;BME280;64924;42.140;24.762;2022-12-18T08:47:51;100688.69;;;11.72;56.40
73870;BME280;64924;42.140;24.762;2022-12-18T08:50:17;100734.66;;;12.07;55.79
73870;BME280;64924;42.140;24.762;2022-12-18T08:52:42;100734.66;;;12.07;56.20
73870;BME280;64924;42.140;24.762;2022-12-18T08:55:08;100735.09;;;12.18;56.28
73870;BME280;64924;42.140;24.762;2022-12-18T08:57:35;100724.91;;;12.12;55.97
73870;BME280;64924;42.140;24.762;2022-12-18T09:00:00;100730.19;;;12.14;56.13
73870;BME280;64924;42.140;24.762;2022-12-18T09:02:26;100730.22;;;12.28;55.69
73870;BME280;64924;42.140;24.762;2022-12-18T09:04:51;100719.81;;;12.32;55.44
73870;BME280;64924;42.140;24.762;2022-12-18T09:07:17;100723.75;;;12.29;55.59
73870;BME280;64924;42.140;24.762;2022-12-18T09:09:42;100728.50;;;12.35;55.25
73870;BME280;64924;42.140;24.762;2022-12-18T09:12:08;100736.47;;;12.37;55.63
73870;BME280;64924;42.140;24.762;2022-12-18T09:14:34;100707.59;;;12.28;55.36
73870;BME280;64924;42.140;24.762;2022-12-18T09:16:59;100735.28;;;12.39;55.42
73870;BME280;64924;42.140;24.762;2022-12-18T09:19:25;100740.91;;;12.38;55.09
73870;BME280;64924;42.140;24.762;2022-12-18T09:21:50;100729.69;;;12.33;55.33
73870;BME280;64924;42.140;24.762;2022-12-18T09:24:16;100731.03;;;12.37;54.73
73870;BME280;64924;42.140;24.762;2022-12-18T09:26:42;100730.41;;;12.27;54.91
73870;BME280;64924;42.140;24.762;2022-12-18T09:29:07;100694.09;;;12.12;54.89
73870;BME280;64924;42.140;24.762;2022-12-18T09:31:33;100626.78;;;11.66;55.26
73870;BME280;64924;42.140;24.762;2022-12-18T09:33:59;100690.69;;;12.10;54.60
73870;BME280;64924;42.140;24.762;2022-12-18T09:36:24;100705.63;;;12.22;54.93
73870;BME280;64924;42.140;24.762;2022-12-18T09:38:50;100739.50;;;12.42;55.02
73870;BME280;64924;42.140;24.762;2022-12-18T09:41:25;100736.75;;;12.50;54.68
73870;BME280;64924;42.140;24.762;2022-12-18T09:43:58;100732.19;;;12.43;54.81
73870;BME280;64924;42.140;24.762;2022-12-18T09:46:34;100728.88;;;12.55;54.58
73870;BME280;64924;42.140;24.762;2022-12-18T09:49:06;100735.41;;;12.46;54.54
73870;BME280;64924;42.140;24.762;2022-12-18T09:51:57;100729.72;;;12.56;54.04
73870;BME280;64924;42.140;24.762;2022-12-18T09:54:46;100733.09;;;12.58;54.31
73870;BME280;64924;42.140;24.762;2022-12-18T09:57:18;100728.63;;;12.42;54.29
73870;BME280;64924;42.140;24.762;2022-12-18T09:59:46;100737.88;;;12.56;54.15
73870;BME280;64924;42.140;24.762;2022-12-18T10:02:19;100740.13;;;12.52;54.79
73870;BME280;64924;42.140;24.762;2022-12-18T10:04:59;100721.22;;;12.51;54.54
73870;BME280;64924;42.140;24.762;2022-12-18T10:07:49;100735.19;;;12.70;54.21
73870;BME280;64924;42.140;24.762;2022-12-18T10:10:42;100732.94;;;12.74;54.25
73870;BME280;64924;42.140;24.762;2022-12-18T10:18:58;100722.03;;;12.59;54.28
73870;BME280;64924;42.140;24.762;2022-12-18T10:26:41;100734.31;;;12.55;54.45
73870;BME280;64924;42.140;24.762;2022-12-18T10:29:16;100736.94;;;12.63;54.38
73870;BME280;64924;42.140;24.762;2022-12-18T10:31:42;100737.03;;;12.55;53.78
73870;BME280;64924;42.140;24.762;2022-12-18T10:34:14;100739.03;;;12.61;54.09
73870;BME280;64924;42.140;24.762;2022-12-18T10:36:40;100730.56;;;12.56;54.44
73870;BME280;64924;42.140;24.762;2022-12-18T10:39:19;100746.59;;;12.74;53.73
73870;BME280;64924;42.140;24.762;2022-12-18T10:41:45;100736.00;;;12.56;54.39
73870;BME280;64924;42.140;24.762;2022-12-18T10:44:31;100741.50;;;12.71;53.92
73870;BME280;64924;42.140;24.762;2022-12-18T10:47:04;100745.53;;;12.60;54.43
73870;BME280;64924;42.140;24.762;2022-12-18T10:49:32;100750.00;;;12.53;54.17
73870;BME280;64924;42.140;24.762;2022-12-18T10:52:25;100757.16;;;12.54;53.92
73870;BME280;64924;42.140;24.762;2022-12-18T10:55:03;100743.63;;;12.38;53.70
73870;BME280;64924;42.140;24.762;2022-12-18T10:57:39;100760.97;;;12.45;53.82
73870;BME280;64924;42.140;24.762;2022-12-18T11:02:51;100777.31;;;12.45;54.46
73870;BME280;64924;42.140;24.762;2022-12-18T11:05:31;100765.91;;;12.42;54.23
73870;BME280;64924;42.140;24.762;2022-12-18T11:07:58;100793.19;;;12.42;54.72
73870;BME280;64924;42.140;24.762;2022-12-18T11:10:33;100784.88;;;12.35;55.13
73870;BME280;64924;42.140;24.762;2022-12-18T11:15:42;100778.91;;;12.09;55.63
73870;BME280;64924;42.140;24.762;2022-12-18T11:21:09;100787.22;;;12.15;55.43
73870;BME280;64924;42.140;24.762;2022-12-18T11:23:35;100792.00;;;12.13;55.66
73870;BME280;64924;42.140;24.762;2022-12-18T11:26:03;100768.13;;;11.84;56.76
73870;BME280;64924;42.140;24.762;2022-12-18T11:29:08;100792.19;;;12.03;57.22
73870;BME280;64924;42.140;24.762;2022-12-18T11:31:33;100783.97;;;11.81;57.04
73870;BME280;64924;42.140;24.762;2022-12-18T11:34:03;100785.50;;;11.83;57.12
73870;BME280;64924;42.140;24.762;2022-12-18T11:36:37;100788.56;;;11.80;57.12
73870;BME280;64924;42.140;24.762;2022-12-18T11:39:33;100789.19;;;11.90;56.74
73870;BME280;64924;42.140;24.762;2022-12-18T11:42:20;100791.22;;;11.88;57.15
73870;BME280;64924;42.140;24.762;2022-12-18T11:47:40;100788.16;;;11.91;55.87
73870;BME280;64924;42.140;24.762;2022-12-18T11:50:55;100791.69;;;12.00;55.62
73870;BME280;64924;42.140;24.762;2022-12-18T11:53:20;100798.75;;;11.86;56.17
73870;BME280;64924;42.140;24.762;2022-12-18T11:58:47;100775.56;;;11.90;56.93
73870;BME280;64924;42.140;24.762;2022-12-18T12:06:31;100791.28;;;11.80;57.26
73870;BME280;64924;42.140;24.762;2022-12-18T12:09:04;100808.41;;;11.89;56.47
73870;BME280;64924;42.140;24.762;2022-12-18T12:11:41;100758.97;;;11.69;56.05
73870;BME280;64924;42.140;24.762;2022-12-18T12:20:17;100794.84;;;12.20;54.40
73870;BME280;64924;42.140;24.762;2022-12-18T12:30:30;100796.66;;;12.27;53.63
73870;BME280;64924;42.140;24.762;2022-12-18T12:38:49;100819.38;;;12.20;53.21
73870;BME280;64924;42.140;24.762;2022-12-18T12:41:19;100775.84;;;12.03;53.08
73870;BME280;64924;42.140;24.762;2022-12-18T12:44:07;100823.06;;;12.27;52.62
73870;BME280;64924;42.140;24.762;2022-12-18T12:46:37;100818.53;;;12.19;52.91
73870;BME280;64924;42.140;24.762;2022-12-18T12:49:14;100825.00;;;12.18;52.50
73870;BME280;64924;42.140;24.762;2022-12-18T12:51:42;100820.06;;;12.14;52.54
73870;BME280;64924;42.140;24.762;2022-12-18T12:54:16;100833.72;;;12.05;52.72
73870;BME280;64924;42.140;24.762;2022-12-18T13:07:05;100843.69;;;11.82;52.21
73870;BME280;64924;42.140;24.762;2022-12-18T13:09:32;100857.94;;;11.92;51.97
73870;BME280;64924;42.140;24.762;2022-12-18T13:12:11;100829.59;;;11.79;52.13
73870;BME280;64924;42.140;24.762;2022-12-18T13:15:13;100862.69;;;11.98;51.88
73870;BME280;64924;42.140;24.762;2022-12-18T13:17:45;100862.38;;;11.93;52.61
73870;BME280;64924;42.140;24.762;2022-12-18T13:20:13;100869.84;;;11.99;52.42
73870;BME280;64924;42.140;24.762;2022-12-18T13:22:45;100874.25;;;12.09;52.40
73870;BME280;64924;42.140;24.762;2022-12-18T13:25:34;100873.91;;;12.03;51.75
73870;BME280;64924;42.140;24.762;2022-12-18T13:38:24;100892.28;;;12.10;52.11
73870;BME280;64924;42.140;24.762;2022-12-18T13:41:24;100890.22;;;12.20;52.13
73870;BME280;64924;42.140;24.762;2022-12-18T13:43:51;100900.13;;;12.04;52.46
73870;BME280;64924;42.140;24.762;2022-12-18T13:46:21;100896.56;;;12.04;52.22
73870;BME280;64924;42.140;24.762;2022-12-18T13:49:01;100905.88;;;12.18;52.34
73870;BME280;64924;42.140;24.762;2022-12-18T13:51:29;100899.44;;;12.11;52.77
73870;BME280;64924;42.140;24.762;2022-12-18T13:54:13;100905.53;;;12.21;53.15
73870;BME280;64924;42.140;24.762;2022-12-18T13:56:44;100905.03;;;12.17;53.99
73870;BME280;64924;42.140;24.762;2022-12-18T13:59:39;100927.34;;;12.21;54.24
73870;BME280;64924;42.140;24.762;2022-12-18T14:02:21;100919.16;;;12.21;54.71
73870;BME280;64924;42.140;24.762;2022-12-18T14:04:48;100939.09;;;12.13;55.74
73870;BME280;64924;42.140;24.762;2022-12-18T14:07:17;100946.41;;;12.13;56.42
73870;BME280;64924;42.140;24.762;2022-12-18T14:09:49;100929.75;;;12.08;57.20
73870;BME280;64924;42.140;24.762;2022-12-18T14:12:18;100940.47;;;12.01;56.95
73870;BME280;64924;42.140;24.762;2022-12-18T14:15:09;100926.94;;;11.77;58.03
73870;BME280;64924;42.140;24.762;2022-12-18T14:17:42;100950.38;;;11.69;58.72
73870;BME280;64924;42.140;24.762;2022-12-18T14:20:14;100938.63;;;11.69;58.57
73870;BME280;64924;42.140;24.762;2022-12-18T14:22:43;100954.63;;;11.72;57.86
73870;BME280;64924;42.140;24.762;2022-12-18T14:25:14;100958.53;;;11.69;57.28
73870;BME280;64924;42.140;24.762;2022-12-18T14:27:46;100967.22;;;11.73;56.61